KPOF/POF METAR and TAF weather

Enter ICAO airport designator
Station Type Date Time Source
KPOF METAR 2019/05/26 00:53 UTC NOAA

KPOF 260053Z AUTO 19005KT 10SM CLR 28/21 A3003 RMK AO2 SLP163 T02780206


Station Type Date Time Source
KPOF Decoded METAR 2019/05/26 00:53 UTC NOAA

POPLAR BLUFF MUN AIRPORT, MO, United States (KPOF) 36-46N 090-19W 100M
May 25, 2019 - 08:53 PM EDT / 2019.05.26 0053 UTC
Wind: from the S (190 degrees) at 6 MPH (5 KT):0
Visibility: 10 mile(s):0
Sky conditions: clear
Temperature: 82.0 F (27.8 C)
Dew Point: 69.1 F (20.6 C)
Relative Humidity: 64%
Pressure (altimeter): 30.03 in. Hg (1016 hPa)
ob: KPOF 260053Z AUTO 19005KT 10SM CLR 28/21 A3003 RMK AO2 SLP163 T02780206
cycle: 1

Station Type Date Time Source
KPOF TAF UTC NOAA

Error!

Example: see airport list